Time;durP1;ratioP1;P1;durP2;ratioP2;P2;SDS_P1;SDS_P2;PMS_P1;PMS_P2;Temp;Humidity;BMP_temperature;BMP_pressure;BME280_temperature;BME280_humidity;BME280_pressure;Samples;Min_cycle;Max_cycle;Signal;HPM_P1;HPM_P2
2021/11/17 02:26:11;;;;;;;8.80;5.97;;;9.20;99.90;;;;;;4954750;28;20182;-81
2021/11/17 02:29:03;;;;;;;7.22;5.38;;;9.20;99.90;;;;;;4972645;28;20175;-82
2021/11/17 02:31:46;;;;;;;7.30;5.40;;;9.20;99.90;;;;;;4972886;28;20175;-83
2021/11/17 02:34:15;;;;;;;8.88;6.65;;;9.20;99.90;;;;;;4954585;28;20211;-81
2021/11/17 02:36:58;;;;;;;9.10;6.45;;;9.20;99.90;;;;;;4971956;28;20172;-81
2021/11/17 02:39:54;;;;;;;9.30;7.10;;;9.10;99.90;;;;;;4972453;28;20180;-83
2021/11/17 02:42:44;;;;;;;10.40;7.20;;;9.10;99.90;;;;;;4998929;28;20591;-83
2021/11/17 02:45:34;;;;;;;10.23;6.82;;;9.10;99.90;;;;;;4978092;28;20563;-83
2021/11/17 02:48:17;;;;;;;9.80;6.90;;;9.10;99.90;;;;;;4993125;28;20199;-83
2021/11/17 02:50:45;;;;;;;9.95;8.40;;;9.10;99.90;;;;;;4995076;28;20178;-83
2021/11/17 02:53:30;;;;;;;11.70;7.75;;;9.10;99.90;;;;;;4995294;28;20278;-83
2021/11/17 02:56:30;;;;;;;10.98;8.43;;;9.10;99.90;;;;;;4978782;28;20662;-83
2021/11/17 02:59:24;;;;;;;11.55;7.75;;;9.10;99.90;;;;;;4995691;28;20179;-83
2021/11/17 03:01:56;;;;;;;10.70;7.22;;;9.10;99.90;;;;;;4999981;28;20171;-83
2021/11/17 03:04:25;;;;;;;10.27;7.25;;;9.10;99.90;;;;;;4977789;28;20191;-84
2021/11/17 03:07:21;;;;;;;9.13;6.90;;;9.10;99.90;;;;;;4994596;28;20297;-83
2021/11/17 03:09:59;;;;;;;10.77;8.02;;;9.10;99.90;;;;;;4995484;28;20504;-83
2021/11/17 03:12:47;;;;;;;14.23;7.45;;;9.10;99.90;;;;;;4994958;28;20171;-83
2021/11/17 03:15:28;;;;;;;10.43;7.28;;;9.10;99.90;;;;;;4995842;28;20226;-83
2021/11/17 03:18:06;;;;;;;11.50;8.38;;;9.10;99.90;;;;;;4976957;28;20228;-82
2021/11/17 03:20:48;;;;;;;11.70;8.10;;;9.10;99.90;;;;;;4962284;28;20217;-82
2021/11/17 03:23:20;;;;;;;10.55;8.10;;;9.10;99.90;;;;;;4977207;28;20203;-82
2021/11/17 03:25:55;;;;;;;10.98;8.00;;;9.10;99.90;;;;;;4994686;28;20257;-82
2021/11/17 03:28:39;;;;;;;13.50;8.73;;;9.10;99.90;;;;;;4977295;28;20268;-82
2021/11/17 03:31:47;;;;;;;10.68;7.85;;;9.10;99.90;;;;;;4977515;28;20698;-82
2021/11/17 03:34:38;;;;;;;9.18;7.05;;;9.10;99.90;;;;;;4994086;28;20344;-82
2021/11/17 03:37:25;;;;;;;12.02;8.55;;;9.10;99.90;;;;;;4979581;28;20171;-82
2021/11/17 03:40:18;;;;;;;10.18;8.13;;;9.10;99.90;;;;;;4994980;28;20174;-82
2021/11/17 03:42:54;;;;;;;10.68;8.43;;;9.20;99.90;;;;;;4994762;28;20171;-82
2021/11/17 03:45:41;;;;;;;10.20;7.50;;;9.20;99.90;;;;;;4994603;28;20206;-82
2021/11/17 03:48:15;;;;;;;8.60;7.13;;;9.10;99.90;;;;;;4994289;28;20198;-82
2021/11/17 03:50:53;;;;;;;10.93;8.18;;;9.20;99.90;;;;;;4994601;28;20523;-83
2021/11/17 03:53:29;;;;;;;9.75;7.85;;;9.10;99.90;;;;;;4994376;28;20190;-82
2021/11/17 03:56:17;;;;;;;11.70;9.38;;;9.20;99.90;;;;;;4976397;28;20190;-82
2021/11/17 03:58:55;;;;;;;11.40;8.48;;;9.20;99.90;;;;;;4994686;28;20202;-82
2021/11/17 04:01:37;;;;;;;13.00;8.38;;;9.20;99.90;;;;;;4993762;28;20265;-82
2021/11/17 04:04:44;;;;;;;11.40;8.80;;;9.20;99.90;;;;;;4996243;28;20195;-82
2021/11/17 04:07:31;;;;;;;10.00;8.30;;;9.20;99.90;;;;;;4976156;28;20265;-82
2021/11/17 04:10:03;;;;;;;12.00;8.73;;;9.20;99.90;;;;;;4994600;28;20168;-82
2021/11/17 04:12:54;;;;;;;10.40;8.00;;;9.20;99.90;;;;;;4994049;28;20198;-82
2021/11/17 04:15:49;;;;;;;12.90;9.35;;;9.20;99.90;;;;;;4999830;28;20179;-82
2021/11/17 04:18:54;;;;;;;9.57;8.55;;;9.30;99.90;;;;;;4967666;28;20253;-82
2021/11/17 04:21:36;;;;;;;11.85;8.57;;;9.30;99.90;;;;;;4998323;28;20182;-82
2021/11/17 04:24:11;;;;;;;10.30;8.40;;;9.30;99.90;;;;;;4996544;28;20179;-82
2021/11/17 04:26:46;;;;;;;12.93;8.07;;;9.30;99.90;;;;;;4995179;28;20560;-81
2021/11/17 04:29:44;;;;;;;10.88;8.15;;;9.30;99.90;;;;;;4994129;28;20512;-82
2021/11/17 04:32:25;;;;;;;11.63;8.75;;;9.30;99.90;;;;;;4950232;28;20175;-82
2021/11/17 04:35:13;;;;;;;10.55;7.97;;;9.40;99.90;;;;;;4993479;28;20191;-82
2021/11/17 04:38:02;;;;;;;11.20;8.35;;;9.30;99.90;;;;;;4976054;28;20183;-82
2021/11/17 04:40:59;;;;;;;9.27;6.93;;;9.30;99.90;;;;;;4977583;28;20171;-82
2021/11/17 04:43:49;;;;;;;10.88;7.35;;;9.40;99.90;;;;;;4976013;28;20195;-82
2021/11/17 04:46:24;;;;;;;8.85;6.80;;;9.40;99.90;;;;;;4993162;28;20554;-83
2021/11/17 04:48:58;;;;;;;12.50;7.80;;;9.40;99.90;;;;;;4993754;28;20174;-83
2021/11/17 04:51:30;;;;;;;9.80;7.50;;;9.40;99.90;;;;;;4979581;28;20167;-83
2021/11/17 04:54:05;;;;;;;10.73;7.75;;;9.40;99.90;;;;;;4993468;28;20199;-82
2021/11/17 04:56:53;;;;;;;9.10;7.00;;;9.40;99.90;;;;;;4992738;28;20201;-82
2021/11/17 04:59:33;;;;;;;11.05;7.28;;;9.40;99.90;;;;;;4993362;28;20171;-83
2021/11/17 05:01:59;;;;;;;13.55;8.88;;;9.40;99.90;;;;;;4959863;28;20186;-83
2021/11/17 05:04:55;;;;;;;9.53;7.30;;;9.40;99.90;;;;;;4975747;28;20183;-82
2021/11/17 05:07:45;;;;;;;11.57;7.75;;;9.30;99.90;;;;;;4965534;28;20745;-82
2021/11/17 05:10:25;;;;;;;9.38;8.02;;;9.30;99.90;;;;;;4975915;28;20179;-83
2021/11/17 05:13:19;;;;;;;12.20;7.47;;;9.30;99.90;;;;;;4974409;28;20175;-82
2021/11/17 05:15:50;;;;;;;10.80;7.60;;;9.40;99.90;;;;;;4976282;28;20163;-83
2021/11/17 05:18:19;;;;;;;8.93;7.25;;;9.30;99.90;;;;;;4992657;28;20194;-83
2021/11/17 05:21:00;;;;;;;12.57;8.57;;;9.40;99.90;;;;;;4993293;28;20175;-82
2021/11/17 05:23:42;;;;;;;11.90;7.72;;;9.40;99.90;;;;;;4975162;28;20277;-83
2021/11/17 05:26:49;;;;;;;10.90;7.10;;;9.40;99.90;;;;;;4992679;28;20186;-83
2021/11/17 05:29:15;;;;;;;9.60;6.78;;;9.40;99.90;;;;;;4917163;29;20192;-83
2021/11/17 05:31:47;;;;;;;13.63;7.60;;;9.40;99.90;;;;;;4913681;29;20178;-83
2021/11/17 05:34:24;;;;;;;10.63;7.65;;;9.40;99.90;;;;;;4953084;28;20199;-83
2021/11/17 05:37:24;;;;;;;10.35;7.30;;;9.40;99.90;;;;;;4992663;28;20193;-83
2021/11/17 05:40:08;;;;;;;10.52;7.50;;;9.40;99.90;;;;;;4976035;28;20379;-82
2021/11/17 05:42:45;;;;;;;8.60;6.00;;;9.40;99.90;;;;;;4993009;28;20167;-83
2021/11/17 05:45:45;;;;;;;9.20;6.20;;;9.40;99.90;;;;;;4975693;28;20175;-82
2021/11/17 05:48:23;;;;;;;9.40;7.57;;;9.40;99.90;;;;;;4962529;28;20202;-82
2021/11/17 05:51:08;;;;;;;11.40;7.10;;;9.50;99.90;;;;;;4993371;28;20175;-82
2021/11/17 05:54:22;;;;;;;10.95;8.65;;;9.50;99.90;;;;;;4992865;28;20179;-82
2021/11/17 05:56:57;;;;;;;12.55;7.95;;;9.50;99.90;;;;;;4988561;28;20233;-81
2021/11/17 05:59:38;;;;;;;12.35;8.82;;;9.50;99.90;;;;;;4960779;28;20179;-82
2021/11/17 06:02:14;;;;;;;13.68;7.90;;;9.50;99.90;;;;;;4962325;28;20171;-82
2021/11/17 06:04:43;;;;;;;10.50;8.60;;;9.40;99.90;;;;;;4944891;28;20671;-82
2021/11/17 06:07:11;;;;;;;10.03;7.37;;;9.40;99.90;;;;;;4964079;28;20206;-82
2021/11/17 06:09:37;;;;;;;11.02;8.80;;;9.30;99.90;;;;;;4959631;28;20193;-82
2021/11/17 06:12:07;;;;;;;9.57;6.80;;;9.30;99.90;;;;;;4992268;28;20178;-82
2021/11/17 06:14:37;;;;;;;11.95;7.78;;;9.30;99.90;;;;;;4992570;28;20579;-82
2021/11/17 06:17:08;;;;;;;14.05;8.10;;;9.30;99.90;;;;;;4992112;28;20202;-82
2021/11/17 06:19:38;;;;;;;13.00;8.73;;;9.20;99.90;;;;;;4992641;28;20170;-82
2021/11/17 06:22:06;;;;;;;9.25;7.50;;;9.30;99.90;;;;;;4992261;28;20173;-83
2021/11/17 06:24:33;;;;;;;10.10;7.05;;;9.30;99.90;;;;;;4996034;28;20546;-82
2021/11/17 06:26:59;;;;;;;11.43;8.40;;;9.30;99.90;;;;;;4996303;28;20218;-83
2021/11/17 06:29:35;;;;;;;9.13;6.90;;;9.30;99.90;;;;;;4997011;28;20187;-83
2021/11/17 06:32:02;;;;;;;11.15;7.90;;;9.30;99.90;;;;;;4996679;28;20577;-83
2021/11/17 06:34:39;;;;;;;10.23;7.35;;;9.30;99.90;;;;;;4998432;28;20198;-83
2021/11/17 06:37:10;;;;;;;13.13;9.45;;;9.20;99.90;;;;;;4996770;28;20265;-82
2021/11/17 06:39:38;;;;;;;12.05;8.95;;;9.10;99.90;;;;;;4996450;28;20221;-82
2021/11/17 06:42:14;;;;;;;12.07;8.23;;;9.10;99.90;;;;;;4997022;28;20180;-81
2021/11/17 06:44:40;;;;;;;12.25;8.50;;;9.10;99.90;;;;;;4997109;28;20285;-82
2021/11/17 06:47:06;;;;;;;11.32;7.68;;;9.00;99.90;;;;;;4996118;28;20240;-81
2021/11/17 06:49:32;;;;;;;12.52;7.00;;;9.00;99.90;;;;;;4987853;28;20163;-81
2021/11/17 06:51:58;;;;;;;11.07;7.35;;;8.90;99.90;;;;;;4980635;28;20195;-80
2021/11/17 06:54:34;;;;;;;14.77;8.73;;;8.90;99.90;;;;;;4995292;28;20598;-81
2021/11/17 06:57:02;;;;;;;12.30;8.05;;;8.90;99.90;;;;;;4978886;28;20175;-80
2021/11/17 06:59:28;;;;;;;9.32;7.03;;;8.80;99.90;;;;;;4994745;28;20661;-80
2021/11/17 07:01:54;;;;;;;10.57;8.10;;;8.80;99.90;;;;;;4995055;28;20254;-81
2021/11/17 07:04:20;;;;;;;10.70;7.87;;;8.80;99.90;;;;;;4977065;28;20685;-79
2021/11/17 07:06:45;;;;;;;9.70;7.70;;;8.80;99.90;;;;;;4993632;28;20624;-79
2021/11/17 07:09:11;;;;;;;11.57;8.50;;;8.80;99.90;;;;;;4995427;28;20174;-80
2021/11/17 07:11:38;;;;;;;9.57;8.00;;;8.80;99.90;;;;;;4976796;28;20589;-80
2021/11/17 07:14:06;;;;;;;11.95;8.20;;;8.80;99.90;;;;;;4994760;28;20203;-79
2021/11/17 07:16:33;;;;;;;14.07;9.30;;;8.90;99.90;;;;;;4994323;28;20171;-79
2021/11/17 07:19:02;;;;;;;10.15;7.28;;;8.90;99.90;;;;;;4993157;28;20190;-80
2021/11/17 07:21:28;;;;;;;10.30;7.45;;;8.90;99.90;;;;;;4982476;28;20166;-80
2021/11/17 07:23:54;;;;;;;11.68;8.90;;;8.90;99.90;;;;;;5013501;28;20535;-80
2021/11/17 07:26:19;;;;;;;12.50;7.80;;;8.90;99.90;;;;;;5013204;28;20177;-80
2021/11/17 07:28:45;;;;;;;9.80;7.50;;;9.00;99.90;;;;;;5012496;28;20213;-79
2021/11/17 07:31:12;;;;;;;9.23;6.63;;;9.00;99.90;;;;;;5014416;28;20490;-79
2021/11/17 07:33:38;;;;;;;12.02;6.85;;;9.10;99.90;;;;;;4996000;28;20190;-79
2021/11/17 07:36:04;;;;;;;8.37;6.77;;;9.10;99.90;;;;;;4993311;28;20186;-79
2021/11/17 07:38:30;;;;;;;9.93;7.40;;;9.20;99.90;;;;;;4994589;28;20594;-81
2021/11/17 07:40:55;;;;;;;11.00;8.40;;;9.20;99.90;;;;;;4994370;28;20556;-80
2021/11/17 07:43:23;;;;;;;11.50;8.57;;;9.20;99.90;;;;;;4994542;28;20696;-81
2021/11/17 07:45:49;;;;;;;9.68;7.38;;;9.20;99.90;;;;;;4994145;28;20594;-81
2021/11/17 07:48:19;;;;;;;10.70;7.47;;;9.20;99.90;;;;;;4994717;28;20290;-81
2021/11/17 07:50:50;;;;;;;13.05;8.80;;;9.20;99.90;;;;;;4994109;28;20581;-80
2021/11/17 07:53:18;;;;;;;9.57;6.57;;;9.20;99.90;;;;;;4994088;28;20841;-81
2021/11/17 07:55:46;;;;;;;10.52;6.60;;;9.20;99.90;;;;;;5005512;28;20182;-80
2021/11/17 07:58:13;;;;;;;9.70;7.60;;;9.20;99.90;;;;;;5017500;28;20175;-79
2021/11/17 08:00:47;;;;;;;9.70;6.28;;;9.30;99.90;;;;;;5019701;28;20206;-79
2021/11/17 08:03:14;;;;;;;10.95;6.43;;;9.40;99.90;;;;;;5013798;28;20185;-79
2021/11/17 08:05:40;;;;;;;8.75;6.78;;;9.50;99.90;;;;;;4995642;28;20241;-79
2021/11/17 08:08:07;;;;;;;8.23;6.97;;;9.60;99.90;;;;;;5012578;28;20194;-79
2021/11/17 08:10:34;;;;;;;8.63;6.97;;;9.70;99.90;;;;;;4996102;28;20175;-79
2021/11/17 08:13:00;;;;;;;8.00;6.53;;;9.80;99.90;;;;;;4995412;28;20288;-79
2021/11/17 08:15:26;;;;;;;8.73;7.22;;;9.80;99.90;;;;;;4995776;28;20174;-80
2021/11/17 08:17:52;;;;;;;11.07;7.90;;;9.90;99.90;;;;;;4995974;28;20166;-80
2021/11/17 08:20:19;;;;;;;10.97;7.53;;;9.80;99.90;;;;;;5013449;28;20267;-80
2021/11/17 08:22:51;;;;;;;11.10;9.00;;;9.80;99.90;;;;;;5013520;28;20324;-80
2021/11/17 08:25:20;;;;;;;10.32;7.68;;;9.80;99.90;;;;;;4979777;28;20182;-80
2021/11/17 08:27:46;;;;;;;9.20;7.60;;;9.80;99.90;;;;;;4995413;28;20288;-80
2021/11/17 08:30:13;;;;;;;8.13;6.13;;;9.80;99.90;;;;;;4995957;28;20297;-80
2021/11/17 08:32:40;;;;;;;8.38;7.25;;;9.90;99.90;;;;;;4995780;28;20170;-80
2021/11/17 08:35:09;;;;;;;11.20;7.30;;;9.90;99.90;;;;;;4999740;28;20178;-79
2021/11/17 08:37:35;;;;;;;9.05;7.03;;;9.90;99.90;;;;;;4995165;28;20537;-80
2021/11/17 08:40:07;;;;;;;9.35;6.82;;;9.90;99.90;;;;;;5012917;28;20170;-80
2021/11/17 08:42:32;;;;;;;9.10;7.38;;;10.00;99.90;;;;;;5013025;28;20257;-79
2021/11/17 08:44:58;;;;;;;7.40;5.77;;;10.10;99.90;;;;;;5013374;28;20269;-80
2021/11/17 08:47:24;;;;;;;10.50;7.17;;;10.30;99.90;;;;;;4993833;28;20256;-80
2021/11/17 08:49:54;;;;;;;9.70;6.83;;;10.40;99.90;;;;;;4995586;28;20188;-79
2021/11/17 08:52:21;;;;;;;9.13;7.50;;;10.60;99.90;;;;;;5012893;28;20247;-79
2021/11/17 08:54:47;;;;;;;9.70;6.85;;;10.60;99.90;;;;;;4994854;28;20198;-79
2021/11/17 08:57:16;;;;;;;7.63;6.00;;;10.70;99.90;;;;;;4993747;28;20267;-79
2021/11/17 08:59:45;;;;;;;7.55;6.35;;;10.80;99.90;;;;;;4992560;28;20179;-80
2021/11/17 09:02:11;;;;;;;8.30;6.72;;;10.80;99.90;;;;;;4993016;28;20183;-79
2021/11/17 09:04:37;;;;;;;7.25;5.18;;;10.80;99.90;;;;;;4992383;28;20190;-80
2021/11/17 09:07:04;;;;;;;7.40;5.77;;;10.70;99.90;;;;;;4992845;28;20195;-81
2021/11/17 09:09:29;;;;;;;7.93;5.22;;;10.70;99.90;;;;;;4993306;28;20246;-79
2021/11/17 09:11:55;;;;;;;10.33;6.67;;;10.70;99.90;;;;;;4976004;28;20254;-80
2021/11/17 09:14:22;;;;;;;8.55;6.45;;;10.60;99.90;;;;;;4975463;28;20607;-79
2021/11/17 09:16:48;;;;;;;6.97;5.33;;;10.50;99.90;;;;;;4975186;28;20179;-79
2021/11/17 09:19:14;;;;;;;9.17;5.80;;;10.50;99.90;;;;;;4992978;28;20222;-78
2021/11/17 09:21:42;;;;;;;8.55;6.25;;;10.40;99.90;;;;;;4993692;28;20578;-79
2021/11/17 09:24:11;;;;;;;8.63;6.35;;;10.40;99.90;;;;;;5001726;28;20194;-79
2021/11/17 09:26:42;;;;;;;8.95;6.18;;;10.40;99.90;;;;;;5002636;28;20194;-80
2021/11/17 09:29:08;;;;;;;8.20;5.40;;;10.40;99.90;;;;;;5003276;28;20563;-78
2021/11/17 09:31:36;;;;;;;10.10;6.68;;;10.40;99.90;;;;;;4994730;28;20175;-80
2021/11/17 09:34:04;;;;;;;8.27;6.20;;;10.40;99.90;;;;;;4992443;28;20193;-80
2021/11/17 09:36:32;;;;;;;9.07;5.78;;;10.40;99.90;;;;;;4974688;28;20533;-80
2021/11/17 09:38:58;;;;;;;7.28;5.78;;;10.40;99.90;;;;;;4975328;28;20213;-79
2021/11/17 09:41:36;;;;;;;6.57;5.18;;;10.40;99.90;;;;;;4992132;28;20202;-79
2021/11/17 09:44:32;;;;;;;8.30;5.70;;;10.40;99.90;;;;;;4992217;28;20191;-80
2021/11/17 09:47:01;;;;;;;9.27;6.25;;;10.30;99.90;;;;;;4993402;28;20754;-79
2021/11/17 09:50:03;;;;;;;10.82;6.72;;;10.30;99.90;;;;;;4992194;28;20206;-80
2021/11/17 09:52:35;;;;;;;7.78;5.40;;;10.30;99.90;;;;;;4991189;28;20773;-80
2021/11/17 09:55:25;;;;;;;7.60;6.63;;;10.30;99.90;;;;;;4992177;28;20195;-80
2021/11/17 09:57:57;;;;;;;6.43;5.22;;;10.30;99.90;;;;;;4973967;28;20163;-80
2021/11/17 10:00:29;;;;;;;6.97;5.00;;;10.40;99.90;;;;;;4975023;28;20528;-81
2021/11/17 10:03:01;;;;;;;7.35;5.07;;;10.40;99.90;;;;;;4991175;28;20167;-80
2021/11/17 10:08:41;;;;;;;8.20;5.38;;;10.40;99.90;;;;;;4972135;28;20678;-80
2021/11/17 10:14:31;;;;;;;7.45;5.10;;;10.50;99.90;;;;;;4973317;28;20575;-81
2021/11/17 10:16:57;;;;;;;11.75;5.35;;;10.50;99.90;;;;;;4941397;28;20302;-81
2021/11/17 10:19:30;;;;;;;11.90;5.45;;;10.50;99.90;;;;;;4942196;28;20317;-80
2021/11/17 10:22:06;;;;;;;8.30;5.55;;;10.50;99.90;;;;;;4991813;28;20193;-81
2021/11/17 10:24:53;;;;;;;10.32;5.10;;;10.50;99.90;;;;;;4976846;28;20187;-80
2021/11/17 10:27:25;;;;;;;7.40;4.65;;;10.50;99.90;;;;;;4991262;28;20242;-80
2021/11/17 10:30:03;;;;;;;8.52;5.75;;;10.50;99.90;;;;;;4991771;28;20178;-80
2021/11/17 10:32:48;;;;;;;6.20;5.15;;;10.50;99.90;;;;;;4991254;28;20236;-80
2021/11/17 10:35:55;;;;;;;7.57;4.80;;;10.50;99.90;;;;;;4992140;28;20167;-80
2021/11/17 10:38:38;;;;;;;6.47;4.63;;;10.50;99.90;;;;;;4991539;28;20174;-80
2021/11/17 10:41:20;;;;;;;10.25;5.15;;;10.60;99.90;;;;;;4992002;28;20224;-80
2021/11/17 10:44:06;;;;;;;12.05;5.95;;;10.50;99.90;;;;;;4991164;28;20191;-80
2021/11/17 10:46:51;;;;;;;8.07;6.15;;;10.50;99.90;;;;;;4991371;28;20178;-81
2021/11/17 10:49:23;;;;;;;6.10;4.68;;;10.50;99.90;;;;;;4974350;28;20167;-80
2021/11/17 10:52:05;;;;;;;6.68;4.70;;;10.50;99.90;;;;;;4973903;28;20170;-81
2021/11/17 10:54:33;;;;;;;6.75;5.28;;;10.60;99.90;;;;;;4957404;28;20197;-81
2021/11/17 10:57:11;;;;;;;8.13;4.63;;;10.60;99.90;;;;;;4973815;28;20179;-80
2021/11/17 10:59:38;;;;;;;8.27;4.03;;;10.70;99.90;;;;;;4990820;28;20171;-81
2021/11/17 11:02:05;;;;;;;10.20;5.15;;;10.80;99.90;;;;;;4992966;28;20190;-80
2021/11/17 11:04:41;;;;;;;11.55;7.80;;;10.80;99.90;;;;;;4991209;28;20273;-81
2021/11/17 11:07:23;;;;;;;10.18;7.28;;;10.80;99.90;;;;;;4991134;28;20230;-81
2021/11/17 11:09:56;;;;;;;10.27;7.03;;;10.90;99.90;;;;;;4991568;28;20167;-81
2021/11/17 11:12:27;;;;;;;9.23;6.53;;;10.90;99.90;;;;;;4995228;28;20171;-79
2021/11/17 11:15:10;;;;;;;9.60;6.68;;;10.90;99.90;;;;;;4994576;28;20278;-80
2021/11/17 11:18:09;;;;;;;10.75;6.55;;;10.90;99.90;;;;;;4994650;28;20183;-80
2021/11/17 11:20:44;;;;;;;7.80;6.53;;;11.00;99.90;;;;;;4994794;28;20547;-80
2021/11/17 11:23:13;;;;;;;7.80;6.70;;;11.00;99.90;;;;;;4994817;28;20199;-80
2021/11/17 11:25:57;;;;;;;7.65;5.97;;;11.00;99.90;;;;;;4977411;28;20175;-80
2021/11/17 11:28:23;;;;;;;6.97;6.05;;;11.10;99.90;;;;;;4995092;28;20213;-80
2021/11/17 11:31:10;;;;;;;7.00;5.67;;;11.20;99.90;;;;;;4994450;28;20167;-80
2021/11/17 11:33:53;;;;;;;6.05;4.50;;;11.20;99.90;;;;;;4994488;28;20600;-80
2021/11/17 11:36:22;;;;;;;7.20;5.03;;;11.30;99.90;;;;;;4961167;28;20626;-79
2021/11/17 11:38:57;;;;;;;5.63;4.45;;;11.30;99.90;;;;;;4985265;28;20516;-80
2021/11/17 11:41:29;;;;;;;8.57;5.88;;;11.40;99.90;;;;;;4999586;28;20245;-81
2021/11/17 11:44:16;;;;;;;5.90;4.82;;;11.40;99.90;;;;;;4994767;28;20194;-81
2021/11/17 11:46:44;;;;;;;6.47;4.95;;;11.50;99.90;;;;;;4997811;28;20170;-80
2021/11/17 11:49:46;;;;;;;6.60;5.72;;;11.60;99.90;;;;;;5017880;28;20170;-80
2021/11/17 11:52:30;;;;;;;7.55;5.30;;;11.60;99.90;;;;;;5014206;28;20265;-81
2021/11/17 11:54:56;;;;;;;7.35;5.75;;;11.60;99.90;;;;;;4975272;28;20183;-80
2021/11/17 11:57:52;;;;;;;7.77;5.93;;;11.60;99.90;;;;;;4957400;28;20755;-81
2021/11/17 12:00:25;;;;;;;6.00;4.63;;;11.60;99.90;;;;;;4957725;28;20259;-81
2021/11/17 12:03:04;;;;;;;9.13;5.20;;;11.70;99.90;;;;;;4974256;28;20274;-81
2021/11/17 12:05:36;;;;;;;6.95;4.72;;;11.70;99.90;;;;;;4957229;28;20203;-81
2021/11/17 12:08:22;;;;;;;7.00;5.88;;;11.80;99.90;;;;;;4973928;28;20206;-81
2021/11/17 12:11:06;;;;;;;10.13;5.70;;;11.90;99.90;;;;;;4996599;28;20185;-81
2021/11/17 12:14:09;;;;;;;6.65;5.53;;;11.90;99.90;;;;;;5012868;28;20202;-80
2021/11/17 12:16:40;;;;;;;7.30;5.15;;;12.00;99.90;;;;;;4974939;28;20216;-79
2021/11/17 12:19:34;;;;;;;8.15;6.30;;;12.10;99.90;;;;;;5004453;28;20198;-79
2021/11/17 12:22:14;;;;;;;7.45;6.05;;;12.10;99.90;;;;;;4984579;28;20171;-81
2021/11/17 12:24:53;;;;;;;7.85;6.35;;;12.20;99.90;;;;;;4993644;28;20210;-81
2021/11/17 12:27:31;;;;;;;10.73;6.57;;;12.30;99.90;;;;;;4975693;28;20221;-80
2021/11/17 12:30:00;;;;;;;7.35;6.32;;;12.30;99.90;;;;;;4993489;28;20225;-80
2021/11/17 12:32:45;;;;;;;13.40;8.20;;;12.40;99.90;;;;;;4984339;28;20182;-80
2021/11/17 12:35:13;;;;;;;8.75;7.05;;;12.40;99.90;;;;;;4992195;28;20289;-80
2021/11/17 12:38:04;;;;;;;8.02;6.60;;;12.50;99.90;;;;;;5004221;28;20259;-79
2021/11/17 12:40:40;;;;;;;8.73;6.72;;;12.50;99.90;;;;;;4979770;28;20231;-79
2021/11/17 12:43:10;;;;;;;8.10;6.50;;;12.50;99.90;;;;;;5012579;28;20205;-79
2021/11/17 12:45:45;;;;;;;8.18;5.50;;;12.60;99.90;;;;;;5013045;28;20569;-79
2021/11/17 12:48:27;;;;;;;10.15;7.22;;;12.60;99.90;;;;;;4995376;28;20202;-77
2021/11/17 12:50:58;;;;;;;9.52;6.78;;;12.60;99.90;;;;;;5013202;28;20174;-79
2021/11/17 12:53:29;;;;;;;12.65;7.88;;;12.70;99.90;;;;;;4996742;28;20197;-78
2021/11/17 12:56:23;;;;;;;11.68;7.97;;;12.70;99.90;;;;;;5012309;28;20720;-78
2021/11/17 12:58:56;;;;;;;10.48;7.63;;;12.70;99.90;;;;;;4995152;28;20182;-78
2021/11/17 13:01:39;;;;;;;11.57;8.95;;;12.70;99.90;;;;;;5013000;28;20209;-78
2021/11/17 13:04:18;;;;;;;10.18;8.10;;;12.80;99.90;;;;;;5012219;28;20540;-79
2021/11/17 13:06:49;;;;;;;11.57;8.55;;;12.80;99.90;;;;;;4994796;28;20174;-80
2021/11/17 13:09:30;;;;;;;12.18;8.40;;;12.80;99.90;;;;;;4999908;28;20213;-80
2021/11/17 13:12:15;;;;;;;10.43;8.25;;;12.80;99.90;;;;;;5005198;28;20177;-80
2021/11/17 13:14:46;;;;;;;12.50;8.63;;;12.90;99.90;;;;;;4992631;28;20616;-79
2021/11/17 13:17:38;;;;;;;12.18;8.32;;;12.80;99.90;;;;;;5007501;28;20177;-78
2021/11/17 13:20:13;;;;;;;10.45;8.73;;;12.90;99.90;;;;;;5011443;28;20221;-78
2021/11/17 13:22:41;;;;;;;11.50;9.23;;;12.90;99.90;;;;;;5012001;28;20184;-78
2021/11/17 13:25:10;;;;;;;14.18;10.77;;;12.90;99.90;;;;;;5001553;28;20777;-79
2021/11/17 13:27:46;;;;;;;14.07;10.07;;;12.90;99.90;;;;;;4992371;28;20198;-79
2021/11/17 13:31:03;;;;;;;16.20;10.13;;;12.90;99.90;;;;;;4976825;28;20503;-80
2021/11/17 13:33:33;;;;;;;12.45;9.90;;;12.90;99.90;;;;;;4970578;28;20235;-79
2021/11/17 13:36:14;;;;;;;18.08;12.10;;;12.90;99.90;;;;;;4975067;28;20202;-79
2021/11/17 13:38:58;;;;;;;15.63;12.00;;;12.90;99.90;;;;;;4959228;28;20670;-80
2021/11/17 13:41:24;;;;;;;17.17;13.10;;;12.90;99.90;;;;;;4992439;28;20178;-79
2021/11/17 13:43:50;;;;;;;18.60;12.63;;;12.90;99.90;;;;;;4992084;28;20195;-79
2021/11/17 13:46:20;;;;;;;16.60;12.03;;;12.90;99.90;;;;;;4992584;28;20175;-79
2021/11/17 13:48:49;;;;;;;19.83;12.60;;;12.90;99.90;;;;;;4958553;28;20622;-80
2021/11/17 13:51:19;;;;;;;15.40;12.10;;;12.90;99.90;;;;;;4992539;28;20171;-80
2021/11/17 13:53:45;;;;;;;18.63;12.17;;;12.90;99.90;;;;;;4991643;28;20685;-79
2021/11/17 13:56:24;;;;;;;17.50;12.60;;;12.90;99.90;;;;;;4992226;28;20574;-79
2021/11/17 13:58:50;;;;;;;15.97;12.33;;;12.90;99.90;;;;;;4992267;28;20562;-79
2021/11/17 14:01:17;;;;;;;16.48;12.18;;;12.90;99.90;;;;;;4992356;28;20573;-80
2021/11/17 14:03:43;;;;;;;22.52;13.40;;;12.90;99.90;;;;;;4974607;28;20718;-79
2021/11/17 14:06:14;;;;;;;16.60;12.83;;;12.90;99.90;;;;;;4994433;28;20238;-79
2021/11/17 14:08:40;;;;;;;20.60;14.25;;;12.90;99.90;;;;;;4992832;28;20630;-79
2021/11/17 14:11:07;;;;;;;18.50;13.73;;;12.90;99.90;;;;;;4975057;28;20222;-80
2021/11/17 14:13:33;;;;;;;23.00;14.82;;;12.90;99.90;;;;;;4998243;28;20195;-80
2021/11/17 14:15:59;;;;;;;19.00;14.80;;;12.90;99.90;;;;;;5016203;28;20182;-80
2021/11/17 14:18:28;;;;;;;18.85;12.88;;;12.90;99.90;;;;;;5011127;28;20246;-79
2021/11/17 14:20:55;;;;;;;18.17;13.57;;;12.90;99.90;;;;;;5009453;28;20222;-79
2021/11/17 14:23:21;;;;;;;20.17;14.02;;;12.90;99.90;;;;;;4993438;28;20247;-78
2021/11/17 14:25:47;;;;;;;17.80;12.73;;;12.90;99.90;;;;;;4992202;28;20659;-80
2021/11/17 14:28:19;;;;;;;22.93;14.60;;;12.90;99.90;;;;;;4992276;28;20960;-79
2021/11/17 14:30:52;;;;;;;22.30;14.80;;;12.90;99.90;;;;;;4991969;28;20179;-78
2021/11/17 14:33:21;;;;;;;22.30;14.13;;;12.90;99.90;;;;;;4991062;28;20202;-79
2021/11/17 14:35:48;;;;;;;20.42;15.10;;;12.90;99.90;;;;;;4990860;28;20186;-80
2021/11/17 14:38:17;;;;;;;23.92;14.48;;;12.90;99.90;;;;;;4974159;28;20201;-79
2021/11/17 14:40:44;;;;;;;20.42;14.77;;;12.90;99.90;;;;;;4991680;28;20614;-79
2021/11/17 14:43:10;;;;;;;20.70;13.50;;;12.90;99.90;;;;;;4992158;28;20234;-79
2021/11/17 14:45:35;;;;;;;21.93;15.10;;;12.90;99.90;;;;;;4995147;28;20187;-79
2021/11/17 14:48:01;;;;;;;20.37;13.90;;;12.90;99.90;;;;;;4977419;28;20601;-80
2021/11/17 14:50:27;;;;;;;20.77;14.47;;;12.80;99.90;;;;;;4995263;28;20167;-79
2021/11/17 14:52:54;;;;;;;19.33;14.00;;;12.80;99.90;;;;;;4995133;28;20257;-79
2021/11/17 14:55:23;;;;;;;21.48;14.20;;;12.80;99.90;;;;;;4995138;28;20186;-80
2021/11/17 14:57:49;;;;;;;17.85;13.27;;;12.80;99.90;;;;;;4977673;28;20190;-79
2021/11/17 15:00:29;;;;;;;15.52;11.88;;;12.80;99.90;;;;;;4995196;28;20321;-79
2021/11/17 15:02:56;;;;;;;20.15;12.55;;;12.70;99.90;;;;;;4995140;28;20178;-79
2021/11/17 15:05:23;;;;;;;19.38;12.15;;;12.70;99.90;;;;;;4994516;28;20673;-79
2021/11/17 15:07:49;;;;;;;19.98;12.90;;;12.70;99.90;;;;;;4994332;28;20349;-79
2021/11/17 15:10:16;;;;;;;14.88;12.05;;;12.70;99.90;;;;;;4994470;28;20194;-80
2021/11/17 15:12:42;;;;;;;17.15;12.50;;;12.70;99.90;;;;;;4976964;28;20163;-79
2021/11/17 15:15:15;;;;;;;19.00;12.85;;;12.70;99.90;;;;;;4994776;28;20181;-79
2021/11/17 15:17:41;;;;;;;21.48;14.30;;;12.70;99.90;;;;;;4993771;28;20194;-79
2021/11/17 15:20:08;;;;;;;17.27;12.85;;;12.70;99.90;;;;;;4995057;28;20261;-79
2021/11/17 15:22:37;;;;;;;20.00;14.15;;;12.70;99.90;;;;;;4994690;28;20171;-79
2021/11/17 15:25:08;;;;;;;15.75;13.55;;;12.70;99.90;;;;;;4994619;28;20197;-79
2021/11/17 15:27:40;;;;;;;19.27;14.05;;;12.70;99.90;;;;;;4992910;28;20199;-79
2021/11/17 15:30:14;;;;;;;19.73;15.55;;;12.70;99.90;;;;;;4993371;28;20171;-79
2021/11/17 15:32:39;;;;;;;29.35;17.67;;;12.80;99.90;;;;;;4993669;28;20179;-78
2021/11/17 15:35:06;;;;;;;21.87;17.20;;;12.70;99.90;;;;;;4993750;28;20241;-78
2021/11/17 15:37:32;;;;;;;21.40;16.00;;;12.80;99.90;;;;;;4993481;28;20171;-79
2021/11/17 15:39:58;;;;;;;21.53;15.63;;;12.80;99.90;;;;;;4994189;28;20258;-79
2021/11/17 15:42:23;;;;;;;21.13;14.97;;;12.80;99.90;;;;;;4993669;28;20174;-80
2021/11/17 15:44:49;;;;;;;20.60;14.83;;;12.80;99.90;;;;;;4993536;28;20519;-79
2021/11/17 15:47:15;;;;;;;19.07;14.70;;;12.80;99.90;;;;;;4976538;28;20211;-80
2021/11/17 15:49:43;;;;;;;21.33;14.70;;;12.80;99.90;;;;;;4976475;28;20554;-79
2021/11/17 15:52:09;;;;;;;18.45;15.55;;;12.80;99.90;;;;;;4976988;28;20211;-79
2021/11/17 15:54:35;;;;;;;24.20;16.23;;;12.80;99.90;;;;;;4976360;28;20214;-80